createdAt,value
2019-04-29T00:03:57.040Z,14.10
2019-04-29T00:08:02.745Z,13.70
2019-04-29T00:12:08.431Z,13.50
2019-04-29T00:16:25.654Z,13.60
2019-04-29T00:20:48.669Z,13.40
2019-04-29T00:24:54.318Z,13.40
2019-04-29T00:29:00.108Z,13.70
2019-04-29T00:33:06.382Z,13.70
2019-04-29T00:37:24.230Z,13.40
2019-04-29T00:41:57.696Z,13.50
2019-04-29T00:46:03.613Z,13.20
2019-04-29T00:50:11.035Z,13.50
2019-04-29T00:54:41.525Z,13.30
2019-04-29T00:58:51.288Z,13.50
2019-04-29T01:02:56.923Z,13.30
2019-04-29T01:07:02.601Z,13.50
2019-04-29T01:11:08.712Z,13.40
2019-04-29T01:15:14.434Z,13.30
2019-04-29T01:19:20.364Z,13.30
2019-04-29T01:23:26.052Z,13.30
2019-04-29T01:27:37.568Z,13.40
2019-04-29T01:31:43.290Z,13.40
2019-04-29T01:35:50.656Z,13.40
2019-04-29T01:40:09.127Z,13.30
2019-04-29T01:44:15.926Z,13.00
2019-04-29T01:48:21.583Z,13.40
2019-04-29T01:52:27.323Z,13.00
2019-04-29T01:56:33.049Z,13.00
2019-04-29T02:00:38.958Z,13.10
2019-04-29T02:04:44.543Z,13.30
2019-04-29T02:08:51.660Z,13.10
2019-04-29T02:12:57.356Z,12.90
2019-04-29T02:17:03.163Z,12.50
2019-04-29T02:21:09.389Z,12.80
2019-04-29T02:25:19.837Z,12.70
2019-04-29T02:29:25.550Z,12.80
2019-04-29T02:33:31.237Z,12.90
2019-04-29T02:37:42.049Z,12.60
2019-04-29T02:41:56.142Z,12.80
2019-04-29T02:46:02.293Z,12.90
2019-04-29T02:50:08.105Z,12.60
2019-04-29T02:54:13.818Z,12.80
2019-04-29T02:58:32.304Z,12.80
2019-04-29T03:02:49.831Z,12.80
2019-04-29T03:06:55.537Z,12.70
2019-04-29T03:11:01.237Z,12.60
2019-04-29T03:15:08.713Z,12.50
2019-04-29T03:19:30.003Z,12.60
2019-04-29T03:23:35.690Z,12.20
2019-04-29T03:27:44.142Z,12.20
2019-04-29T03:31:50.343Z,12.70
2019-04-29T03:35:56.066Z,12.60
2019-04-29T03:40:01.792Z,11.90
2019-04-29T03:44:07.472Z,12.40
2019-04-29T03:48:13.136Z,12.50
2019-04-29T03:52:18.823Z,12.50
2019-04-29T03:56:24.488Z,12.30
2019-04-29T04:00:30.114Z,12.20
2019-04-29T04:05:13.020Z,12.50
2019-04-29T04:09:21.019Z,12.00
2019-04-29T04:13:26.743Z,12.30
2019-04-29T04:17:52.120Z,12.20
2019-04-29T04:21:58.320Z,11.80
2019-04-29T04:26:04.033Z,12.10
2019-04-29T04:30:10.740Z,11.90
2019-04-29T04:34:16.355Z,12.10
2019-04-29T04:38:22.225Z,12.10
2019-04-29T04:42:30.120Z,11.80
2019-04-29T04:46:37.620Z,12.20
2019-04-29T04:50:43.243Z,11.90
2019-04-29T04:54:50.902Z,12.10
2019-04-29T04:58:57.147Z,12.00
2019-04-29T05:03:02.820Z,12.20
2019-04-29T05:07:08.837Z,11.80
2019-04-29T05:11:15.271Z,12.00
2019-04-29T05:15:20.920Z,11.80
2019-04-29T05:19:26.646Z,12.00
2019-04-29T05:23:32.338Z,11.90
2019-04-29T05:27:41.007Z,12.00
2019-04-29T05:31:46.633Z,12.00
2019-04-29T05:36:02.017Z,11.80
2019-04-29T05:40:05.729Z,12.10
2019-04-29T05:44:20.107Z,11.60
2019-04-29T05:48:27.691Z,11.50
2019-04-29T05:52:51.359Z,11.80
2019-04-29T05:56:56.997Z,11.40
2019-04-29T06:01:07.362Z,11.60
2019-04-29T06:05:12.997Z,11.60
2019-04-29T06:09:18.680Z,11.10
2019-04-29T06:13:24.310Z,11.50
2019-04-29T06:17:30.136Z,11.50
2019-04-29T06:21:37.526Z,11.60
2019-04-29T06:25:43.353Z,11.30
2019-04-29T06:29:49.077Z,11.40
2019-04-29T06:33:54.678Z,11.40
2019-04-29T06:38:00.463Z,11.30
2019-04-29T06:42:06.141Z,11.40
2019-04-29T06:46:11.985Z,11.20
2019-04-29T06:50:17.626Z,11.20
2019-04-29T06:54:23.224Z,11.40
2019-04-29T06:58:32.517Z,11.00
2019-04-29T07:02:36.145Z,11.20
2019-04-29T07:06:41.781Z,11.30
2019-04-29T07:10:47.423Z,11.50
2019-04-29T07:14:53.052Z,11.50
2019-04-29T07:18:58.724Z,11.40
2019-04-29T07:23:04.354Z,11.40
2019-04-29T07:27:10.211Z,11.30
2019-04-29T07:31:15.775Z,11.50
2019-04-29T07:35:21.499Z,11.40
2019-04-29T07:39:31.699Z,11.50
2019-04-29T07:43:38.290Z,11.60
2019-04-29T07:47:55.899Z,11.80
2019-04-29T07:51:50.153Z,11.20
2019-04-29T07:55:55.848Z,11.30
2019-04-29T08:00:01.957Z,11.40
2019-04-29T08:04:09.136Z,11.00
2019-04-29T08:08:16.782Z,11.30
2019-04-29T08:12:21.952Z,11.60
2019-04-29T08:16:27.592Z,11.70
2019-04-29T08:20:35.545Z,11.50
2019-04-29T08:24:41.257Z,11.40
2019-04-29T08:28:47.177Z,11.60
2019-04-29T08:32:52.766Z,11.70
2019-04-29T08:36:59.452Z,11.50
2019-04-29T08:41:05.164Z,11.40
2019-04-29T08:45:17.742Z,11.80
2019-04-29T08:49:23.503Z,11.80
2019-04-29T08:53:29.146Z,11.80
2019-04-29T08:57:36.560Z,11.70
2019-04-29T09:01:42.153Z,11.90
2019-04-29T09:06:03.880Z,11.90
2019-04-29T09:09:56.136Z,11.70
2019-04-29T09:14:02.263Z,11.80
2019-04-29T09:18:10.825Z,11.80
2019-04-29T09:22:17.893Z,12.00
2019-04-29T09:26:42.454Z,12.40
2019-04-29T09:30:48.794Z,12.70
2019-04-29T09:34:55.445Z,12.70
2019-04-29T09:39:02.257Z,12.60
2019-04-29T09:43:28.239Z,12.70
2019-04-29T09:47:34.261Z,12.90
2019-04-29T09:51:39.865Z,13.10
2019-04-29T09:55:45.511Z,13.30
2019-04-29T10:00:00.168Z,13.50
2019-04-29T10:04:21.193Z,13.40
2019-04-29T10:08:26.756Z,13.30
2019-04-29T10:12:32.392Z,13.20
2019-04-29T10:16:53.248Z,13.20
2019-04-29T10:21:08.246Z,13.30
2019-04-29T10:25:14.388Z,13.30
2019-04-29T10:29:21.826Z,13.50
2019-04-29T10:33:27.414Z,13.40
2019-04-29T10:37:33.078Z,13.80
2019-04-29T10:41:42.413Z,13.60
2019-04-29T10:46:25.345Z,13.90
2019-04-29T10:50:33.310Z,13.70
2019-04-29T10:54:39.024Z,13.40
2019-04-29T10:58:44.693Z,13.60
2019-04-29T11:02:51.657Z,13.50
2019-04-29T11:07:13.284Z,13.50
2019-04-29T11:11:22.079Z,13.70
2019-04-29T11:15:19.339Z,13.60
2019-04-29T11:19:24.904Z,13.40
2019-04-29T11:23:54.871Z,13.80
2019-04-29T11:28:00.002Z,14.00
2019-04-29T11:32:10.710Z,13.90
2019-04-29T11:36:17.043Z,14.00
2019-04-29T11:40:26.106Z,14.30
2019-04-29T11:44:31.849Z,14.00
2019-04-29T11:48:37.567Z,14.40
2019-04-29T11:52:43.323Z,14.60
2019-04-29T11:56:48.979Z,14.30
2019-04-29T12:01:10.913Z,14.60
2019-04-29T12:05:47.699Z,13.90
2019-04-29T12:09:53.387Z,14.30
2019-04-29T12:14:26.790Z,14.80
2019-04-29T12:18:38.172Z,14.80
2019-04-29T12:22:48.653Z,14.90
2019-04-29T12:26:50.732Z,14.80
2019-04-29T12:30:59.785Z,14.70
2019-04-29T12:35:30.128Z,14.80
2019-04-29T12:40:09.719Z,14.80
2019-04-29T12:44:17.897Z,15.20
2019-04-29T12:48:25.231Z,14.10
2019-04-29T12:52:30.744Z,14.30
2019-04-29T12:56:38.284Z,14.50
2019-04-29T13:00:48.225Z,14.50
2019-04-29T13:05:19.320Z,14.90
2019-04-29T13:09:34.872Z,14.90
2019-04-29T13:13:40.988Z,14.50
2019-04-29T13:18:03.145Z,14.40
2019-04-29T13:22:03.894Z,15.10
2019-04-29T13:26:09.588Z,14.70
2019-04-29T13:30:16.417Z,15.20
2019-04-29T13:34:33.190Z,14.90
2019-04-29T13:38:36.049Z,15.00
2019-04-29T13:42:48.498Z,15.00
2019-04-29T13:47:06.719Z,15.20
2019-04-29T13:51:34.561Z,15.10
2019-04-29T13:55:47.197Z,14.50
2019-04-29T13:59:56.009Z,15.00
2019-04-29T14:04:26.027Z,14.70
2019-04-29T14:08:31.827Z,14.70
2019-04-29T14:13:05.161Z,14.40
2019-04-29T14:16:47.628Z,14.70
2019-04-29T14:20:54.873Z,15.00
2019-04-29T14:25:00.799Z,14.80
2019-04-29T14:29:06.477Z,15.00
2019-04-29T14:33:13.918Z,15.20
2019-04-29T14:37:24.653Z,15.20
2019-04-29T14:41:28.782Z,14.80
2019-04-29T14:45:56.014Z,14.60
2019-04-29T14:50:03.991Z,14.70
2019-04-29T14:54:11.876Z,15.00
2019-04-29T14:58:18.612Z,14.80
2019-04-29T15:02:39.162Z,14.80
2019-04-29T15:06:44.870Z,14.80
2019-04-29T15:10:53.240Z,14.70
2019-04-29T15:15:17.656Z,14.90
2019-04-29T15:19:43.806Z,14.70
2019-04-29T15:23:47.858Z,14.70
2019-04-29T15:27:53.907Z,14.70
2019-04-29T15:31:59.567Z,15.00
2019-04-29T15:36:05.257Z,14.50
2019-04-29T15:40:11.187Z,14.30
2019-04-29T15:44:22.246Z,14.80
2019-04-29T15:48:24.760Z,14.60
2019-04-29T15:52:30.372Z,14.50
2019-04-29T15:56:38.788Z,14.70
2019-04-29T16:00:43.411Z,14.60
2019-04-29T16:04:55.600Z,14.80
2019-04-29T16:09:23.518Z,14.70
2019-04-29T16:13:29.583Z,14.60
2019-04-29T16:21:42.688Z,14.10
2019-04-29T16:25:52.427Z,14.60
2019-04-29T16:29:55.596Z,14.50
2019-04-29T16:34:01.287Z,14.20
2019-04-29T16:38:11.629Z,14.50
2019-04-29T16:42:26.076Z,14.30
2019-04-29T16:46:37.568Z,14.30
2019-04-29T16:50:40.511Z,14.60
2019-04-29T16:54:46.299Z,14.60
2019-04-29T16:58:51.948Z,14.40
2019-04-29T17:02:59.214Z,14.50
2019-04-29T17:07:14.006Z,14.40
2019-04-29T17:11:22.005Z,14.20
2019-04-29T17:15:27.866Z,14.10
2019-04-29T17:19:33.461Z,14.30
2019-04-29T17:23:39.118Z,14.30
2019-04-29T17:28:12.440Z,13.90
2019-04-29T17:32:48.705Z,13.60
2019-04-29T17:35:15.562Z,14.80
2019-04-29T17:36:54.534Z,13.90
2019-04-29T17:41:00.599Z,14.10
2019-04-29T17:45:12.333Z,14.30
2019-04-29T17:49:30.697Z,13.70
2019-04-29T17:53:46.076Z,13.80
2019-04-29T17:57:57.277Z,13.80
2019-04-29T18:02:25.515Z,13.90
2019-04-29T18:06:58.709Z,13.50
2019-04-29T18:11:06.482Z,13.70
2019-04-29T18:15:17.426Z,13.60
2019-04-29T18:19:30.951Z,13.20
2019-04-29T18:23:56.755Z,13.40
2019-04-29T18:28:00.586Z,13.60
2019-04-29T18:32:08.076Z,13.50
2019-04-29T18:36:21.860Z,13.40
2019-04-29T18:40:21.499Z,13.20
2019-04-29T18:44:27.384Z,13.50
2019-04-29T18:48:35.361Z,13.30
2019-04-29T18:52:41.180Z,13.10
2019-04-29T18:56:47.463Z,13.00
2019-04-29T19:00:56.082Z,13.10
2019-04-29T19:05:15.033Z,13.20
2019-04-29T19:09:25.270Z,13.00
2019-04-29T19:13:32.465Z,13.20
2019-04-29T19:17:40.018Z,13.20
2019-04-29T19:21:47.510Z,13.20
2019-04-29T19:25:53.351Z,12.90
2019-04-29T19:29:59.159Z,13.00
2019-04-29T19:34:05.563Z,12.70
2019-04-29T19:38:13.471Z,12.60
2019-04-29T19:42:28.581Z,12.40
2019-04-29T19:46:36.738Z,12.50
2019-04-29T19:50:36.294Z,12.90
2019-04-29T19:54:42.752Z,12.90
2019-04-29T19:58:50.514Z,12.60
2019-04-29T20:02:57.284Z,12.70
2019-04-29T20:07:07.277Z,12.30
2019-04-29T20:11:14.290Z,12.50
2019-04-29T20:15:18.588Z,12.60
2019-04-29T20:19:32.447Z,12.50
2019-04-29T20:23:39.382Z,12.50
2019-04-29T20:27:46.034Z,12.20
2019-04-29T20:31:56.081Z,12.50
2019-04-29T20:36:02.401Z,12.80
2019-04-29T20:40:08.669Z,12.50
2019-04-29T20:44:16.254Z,12.60
2019-04-29T20:48:22.432Z,12.80
2019-04-29T20:52:43.277Z,12.30
2019-04-29T20:56:56.352Z,12.10
2019-04-29T21:01:02.988Z,12.10
2019-04-29T21:05:06.560Z,12.30
2019-04-29T21:09:12.357Z,12.30
2019-04-29T21:13:38.604Z,12.20
2019-04-29T21:17:45.331Z,12.30
2019-04-29T21:21:51.370Z,12.20
2019-04-29T21:26:00.432Z,12.30
2019-04-29T21:30:04.995Z,12.10
2019-04-29T21:34:11.650Z,12.10
2019-04-29T21:38:35.204Z,12.30
2019-04-29T21:42:49.115Z,12.20
2019-04-29T21:46:59.510Z,12.00
2019-04-29T21:51:06.754Z,11.90
2019-04-29T21:55:10.415Z,11.90
2019-04-29T21:59:17.511Z,12.20
2019-04-29T22:03:24.587Z,11.90
2019-04-29T22:07:30.585Z,11.90
2019-04-29T22:11:43.024Z,12.00
2019-04-29T22:15:45.491Z,11.80
2019-04-29T22:19:50.948Z,11.60
2019-04-29T22:23:56.634Z,11.70
2019-04-29T22:28:02.284Z,11.90
2019-04-29T22:32:14.446Z,11.70
2019-04-29T22:36:18.145Z,11.70
2019-04-29T22:40:22.596Z,11.60
2019-04-29T22:44:28.334Z,11.80
2019-04-29T22:48:34.892Z,11.70
2019-04-29T22:52:40.558Z,11.20
2019-04-29T22:56:52.118Z,11.60
2019-04-29T23:00:53.965Z,11.60
2019-04-29T23:05:00.591Z,11.70
2019-04-29T23:09:07.597Z,11.40
2019-04-29T23:13:14.006Z,11.30
2019-04-29T23:17:19.651Z,11.30
2019-04-29T23:21:46.827Z,11.30
2019-04-29T23:25:53.010Z,11.60
2019-04-29T23:29:58.690Z,11.20
2019-04-29T23:34:05.781Z,11.10
2019-04-29T23:38:12.741Z,11.40
2019-04-29T23:42:19.938Z,11.20
2019-04-29T23:46:29.689Z,11.40
2019-04-29T23:50:33.106Z,11.50
2019-04-29T23:54:44.740Z,11.00
2019-04-29T23:58:55.463Z,11.20
